createdAt,value
2023-01-20T00:02:50.603Z,99388.09
2023-01-20T00:05:52.989Z,99398.47
2023-01-20T00:08:57.953Z,99405.34
2023-01-20T00:12:00.328Z,99408.38
2023-01-20T00:15:02.946Z,99406.94
2023-01-20T00:18:05.217Z,99406.38
2023-01-20T00:21:12.831Z,99416.72
2023-01-20T00:24:15.331Z,99428.69
2023-01-20T00:27:20.335Z,99417.13
2023-01-20T00:30:22.865Z,99435.75
2023-01-20T00:33:25.184Z,99435.56
2023-01-20T00:36:29.408Z,99438.56
2023-01-20T00:39:31.735Z,99438.41
2023-01-20T00:42:34.260Z,99452.38
2023-01-20T00:45:36.697Z,99446.50
2023-01-20T00:48:39.364Z,99443.03
2023-01-20T00:51:41.605Z,99447.53
2023-01-20T00:54:43.899Z,99453.63
2023-01-20T00:57:46.255Z,99456.81
2023-01-20T01:00:49.980Z,99452.78
2023-01-20T01:03:58.925Z,99429.47
2023-01-20T01:07:01.262Z,99426.44
2023-01-20T01:10:06.733Z,99421.97
2023-01-20T01:13:09.406Z,99420.31
2023-01-20T01:16:13.265Z,99408.94
2023-01-20T01:19:18.189Z,99407.09
2023-01-20T01:22:21.701Z,99410.59
2023-01-20T01:25:24.075Z,99387.84
2023-01-20T01:28:26.391Z,99384.63
2023-01-20T01:31:29.075Z,99372.03
2023-01-20T01:34:31.426Z,99379.75
2023-01-20T01:37:33.741Z,99385.84
2023-01-20T01:40:36.001Z,99374.50
2023-01-20T01:43:39.533Z,99372.28
2023-01-20T01:46:42.417Z,99360.09
2023-01-20T01:49:45.335Z,99356.28
2023-01-20T01:52:51.321Z,99365.19
2023-01-20T01:55:58.010Z,99364.59
2023-01-20T01:59:03.029Z,99355.25
2023-01-20T02:02:08.467Z,99342.91
2023-01-20T02:05:12.520Z,99354.22
2023-01-20T02:08:15.025Z,99357.13
2023-01-20T02:11:17.359Z,99361.53
2023-01-20T02:14:22.615Z,99362.78
2023-01-20T02:17:34.900Z,99362.78
2023-01-20T02:20:57.505Z,99365.41
2023-01-20T02:24:27.948Z,99367.25
2023-01-20T02:27:51.587Z,99361.56
2023-01-20T02:31:16.922Z,99353.44
2023-01-20T02:35:04.336Z,99360.75
2023-01-20T02:38:25.024Z,99368.84
2023-01-20T02:41:37.796Z,99356.69
2023-01-20T02:45:06.426Z,99366.22
2023-01-20T02:48:16.155Z,99374.13
2023-01-20T02:51:24.497Z,99353.84
2023-01-20T02:54:29.081Z,99363.81
2023-01-20T02:57:36.892Z,99377.59
2023-01-20T03:00:49.998Z,99387.91
2023-01-20T03:03:54.578Z,99372.94
2023-01-20T03:06:58.740Z,99378.41
2023-01-20T03:10:04.793Z,99378.19
2023-01-20T03:13:13.772Z,99393.59
2023-01-20T03:16:18.664Z,99388.75
2023-01-20T03:19:21.125Z,99394.84
2023-01-20T03:22:24.034Z,99401.91
2023-01-20T03:25:26.390Z,99402.94
2023-01-20T03:28:28.722Z,99409.22
2023-01-20T03:31:35.015Z,99405.75
2023-01-20T03:34:39.772Z,99402.94
2023-01-20T03:37:43.689Z,99411.03
2023-01-20T03:41:00.958Z,99405.97
2023-01-20T03:44:25.145Z,99402.13
2023-01-20T03:47:46.338Z,99403.72
2023-01-20T03:51:22.095Z,99394.81
2023-01-20T03:54:27.435Z,99393.63
2023-01-20T03:57:35.640Z,99384.69
2023-01-20T04:00:42.857Z,99391.97
2023-01-20T04:03:47.353Z,99385.72
2023-01-20T04:06:50.801Z,99381.84
2023-01-20T04:09:58.300Z,99367.84
2023-01-20T04:13:00.655Z,99360.97
2023-01-20T04:16:04.347Z,99370.28
2023-01-20T04:19:06.654Z,99382.88
2023-01-20T04:22:19.479Z,99395.03
2023-01-20T04:25:30.453Z,99391.38
2023-01-20T04:28:32.758Z,99383.28
2023-01-20T04:31:36.288Z,99377.38
2023-01-20T04:34:39.823Z,99366.44
2023-01-20T04:37:42.525Z,99395.44
2023-01-20T04:40:44.820Z,99366.22
2023-01-20T04:43:47.507Z,99389.16
2023-01-20T04:46:49.988Z,99382.66
2023-01-20T04:49:52.361Z,99387.53
2023-01-20T04:52:55.930Z,99369.47
2023-01-20T04:55:58.215Z,99381.44
2023-01-20T04:59:00.558Z,99357.13
2023-01-20T05:02:03.041Z,99360.94
2023-01-20T05:05:05.606Z,99347.69
2023-01-20T05:08:07.987Z,99338.28
2023-01-20T05:11:10.488Z,99335.88
2023-01-20T05:14:13.065Z,99334.16
2023-01-20T05:17:15.397Z,99329.31
2023-01-20T05:20:20.402Z,99332.53
2023-01-20T05:23:22.634Z,99327.41
2023-01-20T05:26:25.475Z,99329.06
2023-01-20T05:29:28.866Z,99339.38
2023-01-20T05:32:31.188Z,99345.47
2023-01-20T05:35:33.656Z,99357.31
2023-01-20T05:38:36.501Z,99354.19
2023-01-20T05:41:38.858Z,99335.28
2023-01-20T05:44:41.346Z,99347.53
2023-01-20T05:47:43.692Z,99344.63
2023-01-20T05:50:45.971Z,99342.88
2023-01-20T05:53:48.632Z,99350.75
2023-01-20T05:56:50.893Z,99352.16
2023-01-20T05:59:53.191Z,99348.75
2023-01-20T06:02:55.799Z,99345.09
2023-01-20T06:06:02.976Z,99347.56
2023-01-20T06:09:06.783Z,99347.25
2023-01-20T06:12:10.598Z,99341.38
2023-01-20T06:15:18.920Z,99341.97
2023-01-20T06:18:22.125Z,99360.44
2023-01-20T06:21:25.113Z,99332.28
2023-01-20T06:24:28.284Z,99344.41
2023-01-20T06:27:31.074Z,99339.53
2023-01-20T06:30:34.197Z,99333.88
2023-01-20T06:33:39.497Z,99333.50
2023-01-20T06:36:48.959Z,99356.81
2023-01-20T06:39:51.280Z,99341.59
2023-01-20T06:42:53.758Z,99361.88
2023-01-20T06:46:04.131Z,99347.28
2023-01-20T06:49:13.134Z,99354.19
2023-01-20T06:54:16.031Z,99373.50
2023-01-20T06:56:22.512Z,99373.66
2023-01-20T06:59:25.043Z,99359.88
2023-01-20T07:02:27.563Z,99355.66
2023-01-20T07:05:29.981Z,99373.13
2023-01-20T07:08:32.313Z,99365.00
2023-01-20T07:11:37.802Z,99379.19
2023-01-20T07:14:40.062Z,99372.72
2023-01-20T07:17:42.484Z,99387.50
2023-01-20T07:20:44.981Z,99393.78
2023-01-20T07:24:06.168Z,99410.63
2023-01-20T07:27:11.709Z,99396.25
2023-01-20T07:30:14.274Z,99410.03
2023-01-20T07:33:16.591Z,99411.66
2023-01-20T07:36:19.331Z,99382.22
2023-01-20T07:39:21.786Z,99400.28
2023-01-20T07:42:24.201Z,99378.59
2023-01-20T07:45:26.582Z,99385.09
2023-01-20T07:48:31.332Z,99386.69
2023-01-20T07:51:33.772Z,99419.53
2023-01-20T07:54:36.172Z,99396.22
2023-01-20T07:57:38.543Z,99411.44
2023-01-20T08:00:42.146Z,99415.13
2023-01-20T08:03:44.837Z,99423.81
2023-01-20T08:06:48.200Z,99424.22
2023-01-20T08:09:50.682Z,99408.56
2023-01-20T08:12:52.958Z,99413.44
2023-01-20T08:15:55.803Z,99423.78
2023-01-20T08:18:58.195Z,99421.75
2023-01-20T08:22:00.600Z,99422.81
2023-01-20T08:25:03.018Z,99413.25
2023-01-20T08:28:05.652Z,99425.19
2023-01-20T08:31:11.015Z,99408.56
2023-01-20T08:34:13.537Z,99409.19
2023-01-20T08:37:15.940Z,99428.66
2023-01-20T08:40:18.774Z,99422.63
2023-01-20T08:43:21.325Z,99442.50
2023-01-20T08:46:23.839Z,99439.66
2023-01-20T08:49:26.241Z,99424.22
2023-01-20T08:52:28.736Z,99446.91
2023-01-20T08:55:31.376Z,99431.72
2023-01-20T08:58:33.866Z,99442.22
2023-01-20T09:01:37.883Z,99430.88
2023-01-20T09:04:40.337Z,99415.00
2023-01-20T09:07:43.026Z,99429.81
2023-01-20T09:10:48.584Z,99453.16
2023-01-20T09:13:57.794Z,99434.13
2023-01-20T09:17:10.958Z,99451.34
2023-01-20T09:20:16.094Z,99439.56
2023-01-20T09:23:20.661Z,99409.78
2023-01-20T09:26:41.261Z,99421.91
2023-01-20T09:29:46.856Z,99406.06
2023-01-20T09:32:53.266Z,99394.91
2023-01-20T09:35:56.281Z,99377.66
2023-01-20T09:39:17.902Z,99394.44
2023-01-20T09:47:22.990Z,99376.28
2023-01-20T09:51:11.040Z,99366.31
2023-01-20T09:54:28.751Z,99351.28
2023-01-20T09:57:35.109Z,99361.25
2023-01-20T10:00:38.682Z,99355.59
2023-01-20T10:48:37.474Z,99338.16
2023-01-20T10:52:11.030Z,99333.72
2023-01-20T10:55:47.678Z,99346.16
2023-01-20T10:58:51.161Z,99318.41
2023-01-20T11:02:10.445Z,99353.22
2023-01-20T11:05:19.822Z,99341.66
2023-01-20T11:08:28.752Z,99340.03
2023-01-20T11:11:31.825Z,99333.78
2023-01-20T11:14:34.181Z,99330.81
2023-01-20T11:17:38.195Z,99332.56
2023-01-20T11:20:45.975Z,99324.56
2023-01-20T11:23:52.186Z,99312.06
2023-01-20T11:27:03.451Z,99316.03
2023-01-20T11:30:11.449Z,99297.00
2023-01-20T11:33:26.568Z,99294.28
2023-01-20T11:36:29.335Z,99286.47
2023-01-20T11:39:51.733Z,99284.72
2023-01-20T11:42:54.912Z,99268.97
2023-01-20T11:46:17.084Z,99269.59
2023-01-20T11:49:22.747Z,99286.28
2023-01-20T11:52:25.122Z,99272.63
2023-01-20T11:55:27.496Z,99270.56
2023-01-20T11:58:47.140Z,99274.44
2023-01-20T12:01:52.608Z,99253.09
2023-01-20T12:05:03.515Z,99274.66
2023-01-20T12:08:10.729Z,99256.63
2023-01-20T12:11:17.129Z,99282.09
2023-01-20T12:14:35.901Z,99285.31
2023-01-20T12:17:56.557Z,99275.25
2023-01-20T12:21:18.182Z,99278.47
2023-01-20T12:24:53.585Z,99277.13
2023-01-20T12:28:01.612Z,99278.31
2023-01-20T12:31:12.013Z,99277.06
2023-01-20T12:34:27.633Z,99270.41
2023-01-20T12:37:45.212Z,99276.50
2023-01-20T12:40:55.371Z,99267.94
2023-01-20T12:44:20.246Z,99269.94
2023-01-20T12:47:37.953Z,99270.59
2023-01-20T12:51:10.231Z,99276.78
2023-01-20T12:54:57.874Z,99282.97
2023-01-20T12:58:00.116Z,99282.63
2023-01-20T13:01:26.840Z,99285.25
2023-01-20T13:05:06.867Z,99285.06
2023-01-20T13:08:36.608Z,99280.97
2023-01-20T13:11:57.167Z,99285.41
2023-01-20T13:15:09.714Z,99283.03
2023-01-20T13:18:19.633Z,99301.09
2023-01-20T13:21:22.026Z,99291.75
2023-01-20T13:24:29.384Z,99301.28
2023-01-20T13:27:36.595Z,99290.53
2023-01-20T13:30:44.911Z,99285.06
2023-01-20T13:33:47.500Z,99287.78
2023-01-20T13:37:07.292Z,99293.59
2023-01-20T13:40:28.624Z,99286.13
2023-01-20T13:43:34.797Z,99281.03
2023-01-20T13:46:44.310Z,99279.84
2023-01-20T13:49:48.832Z,99295.03
2023-01-20T13:52:51.933Z,99294.59
2023-01-20T13:55:56.416Z,99292.22
2023-01-20T13:58:59.062Z,99294.09
2023-01-20T14:02:19.552Z,99309.50
2023-01-20T14:05:21.976Z,99320.13
2023-01-20T14:08:26.013Z,99332.09
2023-01-20T14:11:29.935Z,99322.19
2023-01-20T14:14:32.318Z,99327.88
2023-01-20T14:17:36.736Z,99332.75
2023-01-20T14:20:41.064Z,99338.47
2023-01-20T14:23:46.399Z,99337.44
2023-01-20T14:26:48.685Z,99331.75
2023-01-20T14:29:52.777Z,99338.03
2023-01-20T14:32:55.398Z,99329.69
2023-01-20T14:35:57.695Z,99340.38
2023-01-20T14:39:04.146Z,99339.19
2023-01-20T14:42:21.635Z,99346.69
2023-01-20T14:45:25.857Z,99349.16
2023-01-20T14:48:34.896Z,99349.34
2023-01-20T14:51:37.548Z,99354.19
2023-01-20T14:54:46.518Z,99343.88
2023-01-20T14:57:48.877Z,99353.63
2023-01-20T15:01:00.107Z,99341.66
2023-01-20T15:04:05.959Z,99338.41
2023-01-20T15:07:17.508Z,99353.41
2023-01-20T15:10:19.892Z,99337.16
2023-01-20T15:13:28.123Z,99344.44
2023-01-20T15:16:32.374Z,99362.13
2023-01-20T15:19:35.825Z,99368.16
2023-01-20T15:22:42.512Z,99379.94
2023-01-20T15:25:44.919Z,99356.09
2023-01-20T15:28:47.258Z,99361.91
2023-01-20T15:31:50.183Z,99357.38
2023-01-20T15:34:52.607Z,99369.00
2023-01-20T15:37:55.757Z,99384.41
2023-01-20T15:40:58.079Z,99381.59
2023-01-20T15:44:00.524Z,99373.91
2023-01-20T15:47:10.026Z,99371.25
2023-01-20T15:50:24.348Z,99371.53
2023-01-20T15:53:26.600Z,99375.16
2023-01-20T15:56:30.210Z,99382.06
2023-01-20T15:59:32.999Z,99402.28
2023-01-20T16:02:35.317Z,99398.75
2023-01-20T16:05:37.668Z,99394.50
2023-01-20T16:08:40.645Z,99398.59
2023-01-20T16:11:42.962Z,99393.72
2023-01-20T16:14:45.527Z,99407.59
2023-01-20T16:17:48.179Z,99407.59
2023-01-20T16:20:50.527Z,99387.72
2023-01-20T16:23:53.187Z,99388.47
2023-01-20T16:26:55.578Z,99398.91
2023-01-20T16:29:58.016Z,99408.47
2023-01-20T16:33:00.437Z,99394.84
2023-01-20T16:36:02.776Z,99391.97
2023-01-20T16:39:05.099Z,99385.97
2023-01-20T16:42:12.348Z,99386.38
2023-01-20T16:45:27.520Z,99397.06
2023-01-20T16:48:29.848Z,99404.09
2023-01-20T16:51:32.905Z,99415.31
2023-01-20T16:54:35.564Z,99407.00
2023-01-20T16:57:37.914Z,99415.88
2023-01-20T17:00:40.661Z,99404.69
2023-01-20T17:03:43.141Z,99394.13
2023-01-20T17:06:45.689Z,99389.91
2023-01-20T17:09:48.163Z,99405.78
2023-01-20T17:12:54.490Z,99400.34
2023-01-20T17:15:56.853Z,99395.41
2023-01-20T17:19:00.423Z,99400.44
2023-01-20T17:22:02.899Z,99386.50
2023-01-20T17:25:07.067Z,99407.22
2023-01-20T17:28:09.411Z,99395.56
2023-01-20T17:31:12.313Z,99402.19
2023-01-20T17:34:15.024Z,99386.63
2023-01-20T17:37:17.447Z,99397.91
2023-01-20T17:40:19.948Z,99401.69
2023-01-20T17:43:22.349Z,99393.03
2023-01-20T17:46:27.928Z,99410.06
2023-01-20T17:49:30.241Z,99397.63
2023-01-20T17:52:32.545Z,99415.06
2023-01-20T17:55:35.941Z,99414.88
2023-01-20T17:58:38.703Z,99403.25
2023-01-20T18:01:41.056Z,99407.88
2023-01-20T18:04:43.384Z,99404.50
2023-01-20T18:07:45.653Z,99402.50
2023-01-20T18:10:48.023Z,99412.91
2023-01-20T18:13:52.090Z,99422.00
2023-01-20T18:16:54.544Z,99398.59
2023-01-20T18:19:56.900Z,99391.16
2023-01-20T18:22:59.252Z,99386.19
2023-01-20T18:26:01.644Z,99395.72
2023-01-20T18:29:09.983Z,99386.66
2023-01-20T18:32:12.307Z,99383.09
2023-01-20T18:35:14.707Z,99377.78
2023-01-20T18:38:17.206Z,99378.56
2023-01-20T18:41:20.028Z,99375.16
2023-01-20T18:44:23.381Z,99384.88
2023-01-20T18:47:25.648Z,99386.88
2023-01-20T18:50:28.061Z,99393.47
2023-01-20T18:53:31.061Z,99385.47
2023-01-20T18:56:34.341Z,99373.97
2023-01-20T18:59:36.750Z,99375.06
2023-01-20T19:02:39.082Z,99359.53
2023-01-20T19:05:41.453Z,99374.38
2023-01-20T19:08:44.970Z,99382.28
2023-01-20T19:11:47.227Z,99376.78
2023-01-20T19:14:51.343Z,99374.16
2023-01-20T19:17:53.590Z,99377.06
2023-01-20T19:20:55.989Z,99372.13
2023-01-20T19:24:01.339Z,99385.38
2023-01-20T19:27:04.212Z,99400.16
2023-01-20T19:30:08.035Z,99392.72
2023-01-20T19:33:12.265Z,99392.66
2023-01-20T19:36:16.412Z,99393.69
2023-01-20T19:39:19.930Z,99385.59
2023-01-20T19:42:25.731Z,99386.38
2023-01-20T19:45:40.319Z,99392.56
2023-01-20T19:48:47.338Z,99380.75
2023-01-20T19:51:49.636Z,99386.44
2023-01-20T19:54:52.324Z,99387.22
2023-01-20T19:57:55.089Z,99390.50
2023-01-20T20:01:17.261Z,99403.88
2023-01-20T20:04:20.688Z,99393.31
2023-01-20T20:07:24.263Z,99407.88
2023-01-20T20:10:26.552Z,99433.44
2023-01-20T20:13:28.884Z,99431.84
2023-01-20T20:16:33.566Z,99437.50
2023-01-20T20:19:35.974Z,99414.34
2023-01-20T20:22:38.207Z,99424.16
2023-01-20T20:25:44.401Z,99424.19
2023-01-20T20:28:46.967Z,99429.47
2023-01-20T20:31:49.494Z,99439.56
2023-01-20T20:34:51.826Z,99439.41
2023-01-20T20:37:54.091Z,99428.66
2023-01-20T20:40:58.039Z,99433.94
2023-01-20T20:44:01.548Z,99442.47
2023-01-20T20:47:03.958Z,99435.09
2023-01-20T20:50:08.231Z,99438.38
2023-01-20T20:53:10.591Z,99445.88
2023-01-20T20:56:15.298Z,99462.91
2023-01-20T20:59:22.964Z,99455.78
2023-01-20T21:02:26.130Z,99460.88
2023-01-20T21:05:28.457Z,99449.31
2023-01-20T21:08:31.151Z,99462.94
2023-01-20T21:11:33.729Z,99466.22
2023-01-20T21:14:36.030Z,99451.47
2023-01-20T21:17:39.183Z,99453.50
2023-01-20T21:20:41.408Z,99466.13
2023-01-20T21:23:54.686Z,99465.25
2023-01-20T21:26:57.138Z,99466.47
2023-01-20T21:29:59.692Z,99470.81
2023-01-20T21:33:01.988Z,99467.09
2023-01-20T21:36:05.921Z,99483.00
2023-01-20T21:39:20.108Z,99491.09
2023-01-20T21:42:22.504Z,99495.03
2023-01-20T21:45:24.797Z,99493.16
2023-01-20T21:48:45.579Z,99503.53
2023-01-20T21:52:06.438Z,99495.66
2023-01-20T21:55:15.973Z,99506.59
2023-01-20T21:58:18.209Z,99508.69
2023-01-20T22:01:20.495Z,99516.19
2023-01-20T22:04:22.854Z,99521.03
2023-01-20T22:07:25.175Z,99526.34
2023-01-20T22:10:27.454Z,99530.88
2023-01-20T22:13:29.773Z,99526.38
2023-01-20T22:16:32.427Z,99517.66
2023-01-20T22:19:34.969Z,99526.09
2023-01-20T22:22:37.259Z,99529.09
2023-01-20T22:25:39.989Z,99539.31
2023-01-20T22:28:43.011Z,99504.59
2023-01-20T22:31:46.352Z,99524.91
2023-01-20T22:34:48.726Z,99514.91
2023-01-20T22:37:51.046Z,99525.16
2023-01-20T22:40:53.328Z,99530.53
2023-01-20T22:43:55.978Z,99531.53
2023-01-20T22:46:58.269Z,99525.56
2023-01-20T22:50:00.553Z,99512.38
2023-01-20T22:53:03.119Z,99518.84
2023-01-20T22:56:07.727Z,99522.59
2023-01-20T22:59:12.577Z,99516.84
2023-01-20T23:02:15.015Z,99519.84
2023-01-20T23:05:17.309Z,99525.78
2023-01-20T23:08:19.734Z,99518.91
2023-01-20T23:11:23.344Z,99517.31
2023-01-20T23:14:57.766Z,99523.16
2023-01-20T23:18:00.054Z,99524.00
2023-01-20T23:21:02.423Z,99528.22
2023-01-20T23:24:04.902Z,99540.47
2023-01-20T23:27:07.236Z,99551.22
2023-01-20T23:30:11.375Z,99542.09
2023-01-20T23:33:13.631Z,99543.75
2023-01-20T23:36:21.841Z,99553.28
2023-01-20T23:39:24.479Z,99551.25
2023-01-20T23:42:26.837Z,99556.78
2023-01-20T23:45:29.216Z,99564.91
2023-01-20T23:48:32.399Z,99553.28
2023-01-20T23:51:34.769Z,99557.16
2023-01-20T23:54:37.065Z,99561.66
2023-01-20T23:57:39.355Z,99556.59
